createdAt,value
2022-10-17T00:01:48.544Z,8.02
2022-10-17T00:04:15.186Z,8.01
2022-10-17T00:06:41.642Z,8.00
2022-10-17T00:09:08.180Z,8.00
2022-10-17T00:11:34.525Z,7.97
2022-10-17T00:14:00.948Z,7.95
2022-10-17T00:16:28.658Z,7.91
2022-10-17T00:18:55.022Z,7.89
2022-10-17T00:21:21.829Z,7.83
2022-10-17T00:23:48.386Z,7.76
2022-10-17T00:26:15.232Z,7.72
2022-10-17T00:28:41.714Z,7.73
2022-10-17T00:31:08.098Z,7.72
2022-10-17T00:33:35.512Z,7.68
2022-10-17T00:36:02.670Z,7.65
2022-10-17T00:38:29.055Z,7.66
2022-10-17T00:43:27.063Z,7.66
2022-10-17T00:45:53.550Z,7.62
2022-10-17T00:48:23.345Z,7.60
2022-10-17T00:50:50.254Z,7.59
2022-10-17T00:53:17.146Z,7.59
2022-10-17T00:55:50.890Z,7.57
2022-10-17T00:58:18.074Z,7.57
2022-10-17T01:00:46.080Z,7.57
2022-10-17T01:03:12.532Z,7.59
2022-10-17T01:05:39.510Z,7.59
2022-10-17T01:08:06.074Z,7.55
2022-10-17T01:10:43.829Z,7.52
2022-10-17T01:13:19.224Z,7.48
2022-10-17T01:16:04.279Z,7.44
2022-10-17T01:18:36.646Z,7.41
2022-10-17T01:21:15.256Z,7.40
2022-10-17T01:23:41.608Z,7.40
2022-10-17T01:26:26.722Z,7.37
2022-10-17T01:29:02.294Z,7.34
2022-10-17T01:31:34.828Z,7.38
2022-10-17T01:34:06.119Z,7.36
2022-10-17T01:36:44.437Z,7.31
2022-10-17T01:39:14.506Z,7.28
2022-10-17T01:41:40.832Z,7.26
2022-10-17T01:44:09.944Z,7.26
2022-10-17T01:46:37.472Z,7.30
2022-10-17T01:49:05.407Z,7.30
2022-10-17T01:51:36.006Z,7.26
2022-10-17T01:54:05.264Z,7.25
2022-10-17T01:56:32.823Z,7.22
2022-10-17T01:59:02.680Z,7.18
2022-10-17T02:01:30.979Z,7.16
2022-10-17T02:03:58.924Z,7.11
2022-10-17T02:06:25.480Z,7.05
2022-10-17T02:08:52.115Z,7.00
2022-10-17T02:11:19.806Z,7.00
2022-10-17T02:13:49.182Z,7.02
2022-10-17T02:16:24.765Z,7.05
2022-10-17T02:18:51.124Z,7.09
2022-10-17T02:21:28.462Z,7.10
2022-10-17T02:24:07.608Z,7.06
2022-10-17T02:26:36.799Z,7.02
2022-10-17T02:29:09.381Z,7.02
2022-10-17T02:31:41.793Z,7.04
2022-10-17T02:34:11.945Z,7.05
2022-10-17T02:36:44.564Z,7.05
2022-10-17T02:39:11.332Z,7.04
2022-10-17T02:41:38.611Z,7.01
2022-10-17T02:44:05.232Z,6.96
2022-10-17T02:46:33.641Z,6.94
2022-10-17T02:49:06.172Z,6.94
2022-10-17T02:51:52.595Z,6.93
2022-10-17T02:54:21.564Z,6.92
2022-10-17T02:56:53.158Z,6.89
2022-10-17T02:59:22.272Z,6.85
2022-10-17T03:01:49.681Z,6.84
2022-10-17T03:04:16.124Z,6.86
2022-10-17T03:06:42.770Z,6.82
2022-10-17T03:09:09.581Z,6.81
2022-10-17T03:11:35.972Z,6.77
2022-10-17T03:14:02.393Z,6.71
2022-10-17T03:16:28.803Z,6.66
2022-10-17T03:18:55.255Z,6.67
2022-10-17T03:21:21.656Z,6.71
2022-10-17T03:23:48.104Z,6.73
2022-10-17T03:26:14.491Z,6.70
2022-10-17T03:28:40.973Z,6.66
2022-10-17T03:31:11.126Z,6.58
2022-10-17T03:33:37.881Z,6.59
2022-10-17T03:36:11.414Z,6.58
2022-10-17T03:38:38.730Z,6.61
2022-10-17T03:41:05.450Z,6.57
2022-10-17T03:43:32.001Z,6.55
2022-10-17T03:45:59.101Z,6.51
2022-10-17T03:48:25.583Z,6.47
2022-10-17T03:50:52.052Z,6.42
2022-10-17T03:53:18.551Z,6.44
2022-10-17T03:55:44.928Z,6.38
2022-10-17T03:58:11.344Z,6.40
2022-10-17T04:00:37.747Z,6.44
2022-10-17T04:03:04.117Z,6.44
2022-10-17T04:05:30.497Z,6.41
2022-10-17T04:07:58.729Z,6.39
2022-10-17T04:10:27.432Z,6.37
2022-10-17T04:12:53.790Z,6.35
2022-10-17T04:15:20.302Z,6.33
2022-10-17T04:17:48.482Z,6.33
2022-10-17T04:20:15.045Z,6.28
2022-10-17T04:22:41.408Z,6.24
2022-10-17T04:25:07.941Z,6.23
2022-10-17T04:27:34.365Z,6.23
2022-10-17T04:30:00.720Z,6.25
2022-10-17T04:32:27.408Z,6.26
2022-10-17T04:34:53.979Z,6.30
2022-10-17T04:37:20.428Z,6.31
2022-10-17T04:39:46.867Z,6.31
2022-10-17T04:42:13.344Z,6.33
2022-10-17T04:44:39.794Z,6.31
2022-10-17T04:47:06.224Z,6.29
2022-10-17T04:49:32.716Z,6.26
2022-10-17T04:51:59.091Z,6.20
2022-10-17T04:54:25.475Z,6.17
2022-10-17T04:56:51.828Z,6.14
2022-10-17T04:59:18.172Z,6.09
2022-10-17T05:01:44.734Z,6.05
2022-10-17T05:04:11.089Z,6.01
2022-10-17T05:06:37.913Z,6.00
2022-10-17T05:09:04.338Z,6.02
2022-10-17T05:11:30.729Z,6.05
2022-10-17T05:13:58.751Z,6.09
2022-10-17T05:16:25.938Z,6.09
2022-10-17T05:18:53.674Z,6.06
2022-10-17T05:21:20.650Z,6.06
2022-10-17T05:23:47.142Z,6.06
2022-10-17T05:26:13.764Z,6.02
2022-10-17T05:28:40.559Z,6.03
2022-10-17T05:31:07.911Z,6.05
2022-10-17T05:33:34.677Z,6.07
2022-10-17T05:36:01.034Z,6.08
2022-10-17T05:38:27.762Z,6.09
2022-10-17T05:41:00.833Z,6.10
2022-10-17T05:43:27.519Z,6.12
2022-10-17T05:45:53.950Z,6.14
2022-10-17T05:48:20.481Z,6.13
2022-10-17T05:50:46.920Z,6.17
2022-10-17T05:53:13.289Z,6.19
2022-10-17T05:55:39.715Z,6.21
2022-10-17T05:58:06.085Z,6.23
2022-10-17T06:00:32.726Z,6.24
2022-10-17T06:02:59.246Z,6.23
2022-10-17T06:05:25.700Z,6.22
2022-10-17T06:07:56.009Z,6.24
2022-10-17T06:10:24.706Z,6.27
2022-10-17T06:12:51.161Z,6.26
2022-10-17T06:15:17.619Z,6.24
2022-10-17T06:17:43.987Z,6.26
2022-10-17T06:20:10.553Z,6.31
2022-10-17T06:22:36.907Z,6.37
2022-10-17T06:25:03.359Z,6.36
2022-10-17T06:27:29.734Z,6.31
2022-10-17T06:29:56.132Z,6.30
2022-10-17T06:32:22.560Z,6.28
2022-10-17T06:34:49.114Z,6.29
2022-10-17T06:37:15.465Z,6.34
2022-10-17T06:39:41.930Z,6.37
2022-10-17T06:42:08.338Z,6.44
2022-10-17T06:44:34.715Z,6.46
2022-10-17T06:47:01.219Z,6.49
2022-10-17T06:49:27.997Z,6.50
2022-10-17T06:51:54.722Z,6.51
2022-10-17T06:54:21.119Z,6.49
2022-10-17T06:56:47.479Z,6.53
2022-10-17T06:59:15.549Z,6.56
2022-10-17T07:01:44.617Z,6.55
2022-10-17T07:04:13.568Z,6.57
2022-10-17T07:06:39.976Z,6.61
2022-10-17T07:09:07.063Z,6.63
2022-10-17T07:11:35.063Z,6.65
2022-10-17T07:14:01.678Z,6.70
2022-10-17T07:16:28.227Z,6.73
2022-10-17T07:18:54.816Z,6.76
2022-10-17T07:21:21.609Z,6.80
2022-10-17T07:23:47.967Z,6.83
2022-10-17T07:26:15.758Z,6.87
2022-10-17T07:28:43.124Z,6.93
2022-10-17T07:31:15.019Z,6.97
2022-10-17T07:33:41.890Z,7.05
2022-10-17T07:36:08.365Z,7.09
2022-10-17T07:38:34.845Z,7.13
2022-10-17T07:41:02.329Z,7.19
2022-10-17T07:43:29.098Z,7.28
2022-10-17T07:45:55.591Z,7.35
2022-10-17T07:48:22.690Z,7.43
2022-10-17T07:50:49.405Z,7.51
2022-10-17T07:53:15.836Z,7.58
2022-10-17T07:55:42.640Z,7.66
2022-10-17T07:58:09.427Z,7.74
2022-10-17T08:00:37.089Z,7.80
2022-10-17T08:03:04.108Z,7.89
2022-10-17T08:05:30.933Z,7.98
2022-10-17T08:07:57.486Z,8.07
2022-10-17T08:10:27.906Z,8.16
2022-10-17T08:12:54.870Z,8.23
2022-10-17T08:15:21.330Z,8.33
2022-10-17T08:17:47.738Z,8.40
2022-10-17T08:20:14.400Z,8.48
2022-10-17T08:22:41.053Z,8.57
2022-10-17T08:25:07.986Z,8.70
2022-10-17T08:27:34.424Z,8.89
2022-10-17T08:30:00.807Z,9.03
2022-10-17T08:32:28.510Z,9.12
2022-10-17T08:34:55.722Z,9.26
2022-10-17T08:37:22.577Z,9.57
2022-10-17T08:39:49.053Z,9.66
2022-10-17T08:42:35.744Z,9.71
2022-10-17T08:45:14.738Z,9.81
2022-10-17T08:47:43.304Z,9.86
2022-10-17T08:50:15.823Z,9.91
2022-10-17T08:52:48.156Z,10.00
2022-10-17T08:55:37.831Z,10.12
2022-10-17T08:58:17.828Z,10.25
2022-10-17T09:00:48.266Z,10.37
2022-10-17T09:03:14.679Z,10.64
2022-10-17T09:06:10.230Z,10.83
2022-10-17T09:08:45.434Z,10.93
2022-10-17T09:11:29.761Z,11.03
2022-10-17T09:13:59.010Z,11.13
2022-10-17T09:16:25.469Z,11.42
2022-10-17T09:19:10.005Z,11.57
2022-10-17T09:21:42.177Z,11.79
2022-10-17T09:24:25.760Z,11.90
2022-10-17T09:26:53.314Z,11.92
2022-10-17T09:29:23.440Z,11.95
2022-10-17T09:32:03.809Z,12.01
2022-10-17T09:34:31.713Z,12.18
2022-10-17T09:36:59.689Z,12.30
2022-10-17T09:39:26.797Z,12.38
2022-10-17T09:41:54.396Z,12.47
2022-10-17T09:44:22.900Z,12.61
2022-10-17T09:47:07.908Z,12.71
2022-10-17T09:49:35.894Z,12.80
2022-10-17T09:52:08.944Z,12.89
2022-10-17T09:54:43.596Z,13.03
2022-10-17T09:57:10.795Z,13.19
2022-10-17T09:59:37.152Z,13.31
2022-10-17T10:02:09.760Z,13.50
2022-10-17T10:04:41.572Z,13.63
2022-10-17T10:07:28.294Z,13.86
2022-10-17T10:09:56.035Z,14.03
2022-10-17T10:12:30.716Z,14.23
2022-10-17T10:14:57.953Z,14.42
2022-10-17T10:17:26.762Z,14.46
2022-10-17T10:19:53.603Z,14.55
2022-10-17T10:22:23.642Z,14.72
2022-10-17T10:25:08.644Z,14.80
2022-10-17T10:27:35.542Z,14.97
2022-10-17T10:30:02.616Z,15.03
2022-10-17T10:32:31.857Z,15.05
2022-10-17T10:35:20.882Z,15.10
2022-10-17T10:37:52.020Z,15.19
2022-10-17T10:40:18.633Z,15.29
2022-10-17T10:42:50.290Z,15.49
2022-10-17T10:45:48.134Z,15.64
2022-10-17T10:48:34.176Z,15.77
2022-10-17T10:51:02.421Z,15.85
2022-10-17T10:53:35.574Z,15.92
2022-10-17T10:56:11.852Z,15.95
2022-10-17T10:58:47.349Z,16.01
2022-10-17T11:01:25.871Z,16.05
2022-10-17T11:04:07.007Z,16.11
2022-10-17T11:06:37.794Z,16.12
2022-10-17T11:09:22.689Z,16.20
2022-10-17T11:11:54.717Z,16.23
2022-10-17T11:14:36.356Z,16.31
2022-10-17T11:17:13.188Z,16.30
2022-10-17T11:19:58.452Z,16.36
2022-10-17T11:22:31.264Z,16.41
2022-10-17T11:25:06.213Z,16.45
2022-10-17T11:27:34.085Z,16.51
2022-10-17T11:30:00.585Z,16.58
2022-10-17T11:32:31.784Z,16.62
2022-10-17T11:35:03.128Z,16.63
2022-10-17T11:37:31.678Z,16.62
2022-10-17T11:40:01.002Z,16.64
2022-10-17T11:42:31.382Z,16.69
2022-10-17T11:45:01.432Z,16.74
2022-10-17T11:47:36.580Z,16.78
2022-10-17T11:53:16.130Z,16.83
2022-10-17T11:55:43.266Z,16.86
2022-10-17T11:58:22.119Z,16.87
2022-10-17T12:00:58.343Z,16.92
2022-10-17T12:03:24.711Z,17.00
2022-10-17T12:06:08.380Z,17.05
2022-10-17T12:08:44.984Z,17.09
2022-10-17T12:11:20.602Z,17.07
2022-10-17T12:13:48.019Z,17.05
2022-10-17T12:16:20.273Z,16.98
2022-10-17T12:18:48.114Z,16.99
2022-10-17T12:21:14.713Z,17.01
2022-10-17T12:23:41.450Z,17.03
2022-10-17T12:26:09.490Z,17.04
2022-10-17T12:28:46.597Z,17.11
2022-10-17T12:31:15.824Z,17.10
2022-10-17T12:33:49.463Z,17.04
2022-10-17T12:36:18.638Z,17.07
2022-10-17T12:38:49.920Z,17.11
2022-10-17T12:41:17.069Z,17.11
2022-10-17T12:46:36.916Z,17.16
2022-10-17T12:49:04.688Z,17.16
2022-10-17T12:51:51.016Z,17.18
2022-10-17T12:54:17.607Z,17.16
2022-10-17T12:56:49.395Z,17.18
2022-10-17T12:59:26.042Z,17.13
2022-10-17T13:01:55.310Z,17.13
2022-10-17T13:04:22.094Z,17.12
2022-10-17T13:06:50.986Z,17.11
2022-10-17T13:09:33.216Z,17.07
2022-10-17T13:12:02.000Z,17.09
2022-10-17T13:14:28.681Z,17.09
2022-10-17T13:17:02.544Z,17.08
2022-10-17T13:19:30.922Z,17.09
2022-10-17T13:22:06.028Z,17.08
2022-10-17T13:24:33.108Z,17.05
2022-10-17T13:26:59.977Z,17.01
2022-10-17T13:29:28.717Z,16.98
2022-10-17T13:31:56.698Z,16.98
2022-10-17T13:34:24.506Z,16.95
2022-10-17T13:36:53.368Z,16.93
2022-10-17T13:39:32.377Z,16.93
2022-10-17T13:42:18.476Z,16.95
2022-10-17T13:44:45.935Z,16.93
2022-10-17T13:47:25.711Z,16.90
2022-10-17T13:49:55.162Z,16.88
2022-10-17T13:52:23.433Z,16.81
2022-10-17T13:54:51.234Z,16.74
2022-10-17T13:57:22.882Z,16.74
2022-10-17T13:59:50.701Z,16.70
2022-10-17T14:02:19.104Z,16.70
2022-10-17T14:05:15.105Z,16.66
2022-10-17T14:08:12.114Z,16.58
2022-10-17T14:10:38.522Z,16.56
2022-10-17T14:13:08.157Z,16.54
2022-10-17T14:15:35.810Z,16.49
2022-10-17T14:18:07.540Z,16.51
2022-10-17T14:21:19.465Z,16.46
2022-10-17T14:23:30.658Z,16.42
2022-10-17T14:26:14.402Z,16.40
2022-10-17T14:28:42.331Z,16.36
2022-10-17T14:31:21.016Z,16.34
2022-10-17T14:33:50.877Z,16.25
2022-10-17T14:36:18.049Z,16.27
2022-10-17T14:38:46.150Z,16.21
2022-10-17T14:44:07.383Z,16.17
2022-10-17T14:46:37.748Z,16.17
2022-10-17T14:49:08.555Z,16.15
2022-10-17T14:51:44.777Z,16.13
2022-10-17T14:54:29.803Z,16.10
2022-10-17T14:56:56.417Z,16.06
2022-10-17T14:59:52.208Z,16.00
2022-10-17T15:02:12.013Z,15.94
2022-10-17T15:04:38.370Z,15.93
2022-10-17T15:07:04.978Z,15.86
2022-10-17T15:09:31.740Z,15.83
2022-10-17T15:12:05.342Z,15.73
2022-10-17T15:14:31.894Z,15.58
2022-10-17T15:16:58.362Z,15.48
2022-10-17T15:19:24.728Z,15.40
2022-10-17T15:21:51.127Z,15.31
2022-10-17T15:24:17.517Z,15.18
2022-10-17T15:26:44.048Z,15.12
2022-10-17T15:29:14.615Z,15.05
2022-10-17T15:31:41.655Z,15.00
2022-10-17T15:34:08.124Z,14.92
2022-10-17T15:36:38.899Z,14.89
2022-10-17T15:39:05.415Z,14.82
2022-10-17T15:41:32.694Z,14.76
2022-10-17T15:43:59.528Z,14.69
2022-10-17T15:46:30.474Z,14.61
2022-10-17T15:49:01.173Z,14.47
2022-10-17T15:51:27.536Z,14.42
2022-10-17T15:53:53.938Z,14.35
2022-10-17T15:56:28.670Z,14.28
2022-10-17T15:58:55.246Z,14.21
2022-10-17T16:01:23.672Z,14.14
2022-10-17T16:03:50.733Z,14.09
2022-10-17T16:06:18.356Z,14.00
2022-10-17T16:08:45.518Z,13.93
2022-10-17T16:11:20.676Z,13.86
2022-10-17T16:13:50.318Z,13.77
2022-10-17T16:16:16.779Z,13.72
2022-10-17T16:18:43.186Z,13.63
2022-10-17T16:21:12.728Z,13.57
2022-10-17T16:23:39.209Z,13.49
2022-10-17T16:26:05.681Z,13.42
2022-10-17T16:28:32.115Z,13.34
2022-10-17T16:30:58.577Z,13.28
2022-10-17T16:33:24.961Z,13.24
2022-10-17T16:35:51.614Z,13.18
2022-10-17T16:38:17.970Z,13.11
2022-10-17T16:40:44.431Z,13.05
2022-10-17T16:43:12.135Z,12.98
2022-10-17T16:45:38.604Z,12.91
2022-10-17T16:48:05.166Z,12.84
2022-10-17T16:50:35.364Z,12.77
2022-10-17T16:53:03.871Z,12.68
2022-10-17T16:55:30.246Z,12.62
2022-10-17T16:57:56.865Z,12.56
2022-10-17T17:00:23.272Z,12.49
2022-10-17T17:02:49.705Z,12.40
2022-10-17T17:05:16.171Z,12.31
2022-10-17T17:07:42.702Z,12.24
2022-10-17T17:10:09.219Z,12.14
2022-10-17T17:12:36.283Z,12.09
2022-10-17T17:15:03.549Z,12.02
2022-10-17T17:17:44.579Z,11.99
2022-10-17T17:20:14.738Z,11.92
2022-10-17T17:22:41.086Z,11.87
2022-10-17T17:25:07.706Z,11.81
2022-10-17T17:27:34.134Z,11.78
2022-10-17T17:30:00.540Z,11.76
2022-10-17T17:32:27.263Z,11.75
2022-10-17T17:34:54.496Z,11.71
2022-10-17T17:37:20.856Z,11.65
2022-10-17T17:39:47.210Z,11.62
2022-10-17T17:42:13.617Z,11.57
2022-10-17T17:44:40.060Z,11.51
2022-10-17T17:47:06.434Z,11.46
2022-10-17T17:49:32.813Z,11.40
2022-10-17T17:51:59.256Z,11.35
2022-10-17T17:54:25.682Z,11.30
2022-10-17T17:56:52.233Z,11.24
2022-10-17T17:59:18.612Z,11.21
2022-10-17T18:01:45.089Z,11.12
2022-10-17T18:04:11.714Z,11.06
2022-10-17T18:06:38.530Z,11.02
2022-10-17T18:09:05.959Z,10.99
2022-10-17T18:11:32.736Z,10.95
2022-10-17T18:14:00.335Z,10.91
2022-10-17T18:16:27.495Z,10.86
2022-10-17T18:18:54.399Z,10.81
2022-10-17T18:21:20.768Z,10.76
2022-10-17T18:23:47.879Z,10.71
2022-10-17T18:26:14.935Z,10.69
2022-10-17T18:31:24.254Z,10.60
2022-10-17T18:33:51.542Z,10.52
2022-10-17T18:36:18.123Z,10.47
2022-10-17T18:38:44.547Z,10.43
2022-10-17T18:41:15.419Z,10.43
2022-10-17T18:43:42.866Z,10.43
2022-10-17T18:46:13.905Z,10.41
2022-10-17T18:48:42.322Z,10.37
2022-10-17T18:51:08.769Z,10.35
2022-10-17T18:53:35.140Z,10.27
2022-10-17T18:56:03.384Z,10.26
2022-10-17T18:58:29.968Z,10.22
2022-10-17T19:01:01.436Z,10.21
2022-10-17T19:03:27.776Z,10.13
2022-10-17T19:05:56.655Z,10.08
2022-10-17T19:08:25.485Z,10.04
2022-10-17T19:10:51.894Z,10.00
2022-10-17T19:13:21.521Z,10.00
2022-10-17T19:15:48.361Z,9.94
2022-10-17T19:18:14.817Z,9.90
2022-10-17T19:20:41.219Z,9.85
2022-10-17T19:23:07.604Z,9.81
2022-10-17T19:25:34.075Z,9.81
2022-10-17T19:28:00.539Z,9.79
2022-10-17T19:30:26.971Z,9.73
2022-10-17T19:32:53.361Z,9.71
2022-10-17T19:35:19.805Z,9.67
2022-10-17T19:37:46.163Z,9.62
2022-10-17T19:40:12.789Z,9.64
2022-10-17T19:42:39.301Z,9.58
2022-10-17T19:45:06.089Z,9.54
2022-10-17T19:47:32.765Z,9.49
2022-10-17T19:49:59.197Z,9.47
2022-10-17T19:52:25.746Z,9.44
2022-10-17T19:54:52.103Z,9.37
2022-10-17T19:57:18.529Z,9.33
2022-10-17T19:59:44.957Z,9.33
2022-10-17T20:02:12.925Z,9.29
2022-10-17T20:04:49.602Z,9.27
2022-10-17T20:07:25.726Z,9.21
2022-10-17T20:09:52.127Z,9.20
2022-10-17T20:12:18.510Z,9.17
2022-10-17T20:14:44.894Z,9.14
2022-10-17T20:17:11.277Z,9.13
2022-10-17T20:19:37.634Z,9.15
2022-10-17T20:22:04.398Z,9.14
2022-10-17T20:24:30.846Z,9.09
2022-10-17T20:26:57.240Z,9.03
2022-10-17T20:29:24.112Z,9.03
2022-10-17T20:31:50.717Z,9.02
2022-10-17T20:34:18.055Z,8.98
2022-10-17T20:36:44.521Z,8.96
2022-10-17T20:39:12.282Z,8.98
2022-10-17T20:41:39.066Z,8.95
2022-10-17T20:44:06.981Z,8.95
2022-10-17T20:46:38.333Z,8.94
2022-10-17T20:49:08.707Z,8.89
2022-10-17T20:51:35.768Z,8.89
2022-10-17T20:54:03.040Z,8.86
2022-10-17T20:56:30.649Z,8.83
2022-10-17T20:59:01.429Z,8.81
2022-10-17T21:01:28.436Z,8.79
2022-10-17T21:03:55.228Z,8.72
2022-10-17T21:06:22.434Z,8.69
2022-10-17T21:08:49.449Z,8.68
2022-10-17T21:11:19.978Z,8.64
2022-10-17T21:13:47.063Z,8.59
2022-10-17T21:16:15.204Z,8.57
2022-10-17T21:18:42.224Z,8.51
2022-10-17T21:21:08.677Z,8.50
2022-10-17T21:23:35.066Z,8.52
2022-10-17T21:26:01.532Z,8.52
2022-10-17T21:28:27.935Z,8.49
2022-10-17T21:30:54.317Z,8.49
2022-10-17T21:33:20.700Z,8.47
2022-10-17T21:35:47.067Z,8.49
2022-10-17T21:38:13.444Z,8.50
2022-10-17T21:40:39.811Z,8.47
2022-10-17T21:43:06.187Z,8.43
2022-10-17T21:45:35.422Z,8.41
2022-10-17T21:48:12.575Z,8.39
2022-10-17T21:50:39.536Z,8.35
2022-10-17T21:53:05.908Z,8.33
2022-10-17T21:55:32.304Z,8.30
2022-10-17T21:57:58.723Z,8.24
2022-10-17T22:00:25.087Z,8.22
2022-10-17T22:02:51.516Z,8.21
2022-10-17T22:05:17.890Z,8.23
2022-10-17T22:07:44.251Z,8.19
2022-10-17T22:10:10.596Z,8.18
2022-10-17T22:12:37.031Z,8.13
2022-10-17T22:15:03.776Z,8.11
2022-10-17T22:17:30.483Z,8.12
2022-10-17T22:19:57.036Z,8.11
2022-10-17T22:22:23.407Z,8.09
2022-10-17T22:24:49.760Z,8.03
2022-10-17T22:27:16.212Z,8.01
2022-10-17T22:29:42.586Z,8.00
2022-10-17T22:32:08.988Z,8.00
2022-10-17T22:34:35.371Z,8.02
2022-10-17T22:37:01.769Z,8.00
2022-10-17T22:39:28.186Z,7.98
2022-10-17T22:41:54.563Z,7.95
2022-10-17T22:44:20.939Z,7.94
2022-10-17T22:46:47.374Z,7.97
2022-10-17T22:49:13.829Z,7.96
2022-10-17T22:51:40.226Z,7.91
2022-10-17T22:54:06.991Z,7.88
2022-10-17T22:56:33.433Z,7.85
2022-10-17T22:58:59.798Z,7.81
2022-10-17T23:01:26.287Z,7.79
2022-10-17T23:03:52.721Z,7.75
2022-10-17T23:06:19.686Z,7.71
2022-10-17T23:08:46.061Z,7.72
2022-10-17T23:11:12.899Z,7.71
2022-10-17T23:13:40.786Z,7.70
2022-10-17T23:16:07.895Z,7.68
2022-10-17T23:18:34.276Z,7.68
2022-10-17T23:21:00.719Z,7.68
2022-10-17T23:23:27.225Z,7.65
2022-10-17T23:25:53.625Z,7.61
2022-10-17T23:28:20.367Z,7.57
2022-10-17T23:30:46.810Z,7.56
2022-10-17T23:33:13.916Z,7.56
2022-10-17T23:35:40.538Z,7.54
2022-10-17T23:38:06.993Z,7.51
2022-10-17T23:40:34.824Z,7.47
2022-10-17T23:43:01.423Z,7.47
2022-10-17T23:45:27.840Z,7.48
2022-10-17T23:47:54.232Z,7.49
2022-10-17T23:50:20.615Z,7.47
2022-10-17T23:52:47.022Z,7.44
2022-10-17T23:55:13.402Z,7.39
2022-10-17T23:57:39.860Z,7.36
